sensor_id;sensor_type;location;lat;lon;timestamp;pressure;altitude;pressure_sealevel;temperature;humidity
11124;BME280;5616;42.692;23.312;2023-04-20T00:01:52;94788.16;;;11.80;71.28
11124;BME280;5616;42.692;23.312;2023-04-20T00:04:19;94780.41;;;11.87;70.89
11124;BME280;5616;42.692;23.312;2023-04-20T00:06:46;94779.66;;;11.93;71.66
11124;BME280;5616;42.692;23.312;2023-04-20T00:09:15;94775.03;;;11.88;69.51
11124;BME280;5616;42.692;23.312;2023-04-20T00:11:41;94781.41;;;11.86;69.47
11124;BME280;5616;42.692;23.312;2023-04-20T00:14:09;94771.06;;;11.86;71.10
11124;BME280;5616;42.692;23.312;2023-04-20T00:16:36;94766.09;;;11.91;71.40
11124;BME280;5616;42.692;23.312;2023-04-20T00:19:03;94768.88;;;11.89;70.42
11124;BME280;5616;42.692;23.312;2023-04-20T00:21:31;94761.50;;;11.86;71.37
11124;BME280;5616;42.692;23.312;2023-04-20T00:23:58;94765.06;;;11.79;69.72
11124;BME280;5616;42.692;23.312;2023-04-20T00:26:26;94770.47;;;11.77;70.32
11124;BME280;5616;42.692;23.312;2023-04-20T00:28:54;94773.44;;;11.74;70.79
11124;BME280;5616;42.692;23.312;2023-04-20T00:31:21;94764.00;;;11.60;72.52
11124;BME280;5616;42.692;23.312;2023-04-20T00:33:48;94757.84;;;11.61;71.28
11124;BME280;5616;42.692;23.312;2023-04-20T00:36:15;94759.63;;;11.60;72.00
11124;BME280;5616;42.692;23.312;2023-04-20T00:38:41;94759.63;;;11.60;74.07
11124;BME280;5616;42.692;23.312;2023-04-20T00:41:08;94762.59;;;11.57;72.14
11124;BME280;5616;42.692;23.312;2023-04-20T00:43:36;94762.00;;;11.55;71.11
11124;BME280;5616;42.692;23.312;2023-04-20T00:46:05;94760.22;;;11.56;72.41
11124;BME280;5616;42.692;23.312;2023-04-20T00:48:31;94761.25;;;11.61;72.48
11124;BME280;5616;42.692;23.312;2023-04-20T00:50:58;94759.63;;;11.67;72.32
11124;BME280;5616;42.692;23.312;2023-04-20T00:53:26;94764.00;;;11.60;71.63
11124;BME280;5616;42.692;23.312;2023-04-20T00:55:54;94754.84;;;11.57;70.75
11124;BME280;5616;42.692;23.312;2023-04-20T00:58:21;94761.59;;;11.52;72.05
11124;BME280;5616;42.692;23.312;2023-04-20T01:00:51;94758.41;;;11.56;72.54
11124;BME280;5616;42.692;23.312;2023-04-20T01:03:18;94766.34;;;11.48;71.33
11124;BME280;5616;42.692;23.312;2023-04-20T01:05:47;94759.91;;;11.31;72.83
11124;BME280;5616;42.692;23.312;2023-04-20T01:08:14;94755.19;;;11.35;72.86
11124;BME280;5616;42.692;23.312;2023-04-20T01:10:41;94756.16;;;11.34;73.75
11124;BME280;5616;42.692;23.312;2023-04-20T01:13:07;94751.75;;;11.28;74.29
11124;BME280;5616;42.692;23.312;2023-04-20T01:15:34;94755.13;;;11.28;74.35
11124;BME280;5616;42.692;23.312;2023-04-20T01:18:02;94752.97;;;11.38;74.53
11124;BME280;5616;42.692;23.312;2023-04-20T01:20:31;94751.19;;;11.39;74.35
11124;BME280;5616;42.692;23.312;2023-04-20T01:23:00;94747.81;;;11.32;74.79
11124;BME280;5616;42.692;23.312;2023-04-20T01:25:27;94760.53;;;11.33;74.97
11124;BME280;5616;42.692;23.312;2023-04-20T01:27:54;94749.78;;;11.36;75.33
11124;BME280;5616;42.692;23.312;2023-04-20T01:30:21;94749.97;;;11.28;74.05
11124;BME280;5616;42.692;23.312;2023-04-20T01:32:47;94754.75;;;11.31;73.74
11124;BME280;5616;42.692;23.312;2023-04-20T01:35:14;94755.13;;;11.22;74.59
11124;BME280;5616;42.692;23.312;2023-04-20T01:37:43;94745.97;;;11.19;75.27
11124;BME280;5616;42.692;23.312;2023-04-20T01:40:12;94742.75;;;11.17;76.01
11124;BME280;5616;42.692;23.312;2023-04-20T01:42:40;94742.41;;;11.27;75.19
11124;BME280;5616;42.692;23.312;2023-04-20T01:45:07;94743.22;;;11.27;75.84
11124;BME280;5616;42.692;23.312;2023-04-20T01:47:35;94736.44;;;11.26;75.94
11124;BME280;5616;42.692;23.312;2023-04-20T01:50:02;94737.47;;;11.32;74.73
11124;BME280;5616;42.692;23.312;2023-04-20T01:52:29;94730.31;;;11.34;73.85
11124;BME280;5616;42.692;23.312;2023-04-20T01:54:56;94732.09;;;11.33;74.06
11124;BME280;5616;42.692;23.312;2023-04-20T01:57:25;94730.69;;;11.31;74.96
11124;BME280;5616;42.692;23.312;2023-04-20T01:59:51;94733.88;;;11.33;74.60
11124;BME280;5616;42.692;23.312;2023-04-20T02:02:19;94736.06;;;11.36;73.84
11124;BME280;5616;42.692;23.312;2023-04-20T02:04:45;94731.69;;;11.36;73.71
11124;BME280;5616;42.692;23.312;2023-04-20T02:07:12;94727.34;;;11.37;73.62
11124;BME280;5616;42.692;23.312;2023-04-20T02:09:39;94731.28;;;11.33;75.03
11124;BME280;5616;42.692;23.312;2023-04-20T02:12:06;94727.94;;;11.32;73.93
11124;BME280;5616;42.692;23.312;2023-04-20T02:14:34;94736.44;;;11.33;74.60
11124;BME280;5616;42.692;23.312;2023-04-20T02:17:01;94732.78;;;11.07;74.46
11124;BME280;5616;42.692;23.312;2023-04-20T02:19:27;94724.50;;;11.19;74.94
11124;BME280;5616;42.692;23.312;2023-04-20T02:21:54;94734.44;;;11.22;74.86
11124;BME280;5616;42.692;23.312;2023-04-20T02:24:21;94728.06;;;11.18;74.68
11124;BME280;5616;42.692;23.312;2023-04-20T02:26:48;94732.84;;;11.21;74.15
11124;BME280;5616;42.692;23.312;2023-04-20T02:29:15;94734.63;;;11.20;75.07
11124;BME280;5616;42.692;23.312;2023-04-20T02:31:43;94736.63;;;11.25;73.50
11124;BME280;5616;42.692;23.312;2023-04-20T02:34:14;94734.84;;;11.25;73.74
11124;BME280;5616;42.692;23.312;2023-04-20T02:36:41;94732.06;;;11.27;73.67
11124;BME280;5616;42.692;23.312;2023-04-20T02:39:11;94732.88;;;11.27;74.09
11124;BME280;5616;42.692;23.312;2023-04-20T02:41:38;94735.84;;;11.24;74.14
11124;BME280;5616;42.692;23.312;2023-04-20T02:44:05;94737.63;;;11.24;74.35
11124;BME280;5616;42.692;23.312;2023-04-20T02:46:35;94738.44;;;11.24;74.35
11124;BME280;5616;42.692;23.312;2023-04-20T02:49:03;94734.47;;;11.28;73.46
11124;BME280;5616;42.692;23.312;2023-04-20T02:51:34;94731.66;;;11.17;75.03
11124;BME280;5616;42.692;23.312;2023-04-20T02:54:01;94732.78;;;11.14;74.94
11124;BME280;5616;42.692;23.312;2023-04-20T02:56:28;94733.22;;;11.18;74.51
11124;BME280;5616;42.692;23.312;2023-04-20T02:59:01;94725.25;;;11.13;74.31
11124;BME280;5616;42.692;23.312;2023-04-20T03:01:34;94737.19;;;11.14;74.45
11124;BME280;5616;42.692;23.312;2023-04-20T03:04:10;94735.38;;;11.14;74.05
11124;BME280;5616;42.692;23.312;2023-04-20T03:06:43;94731.81;;;11.15;74.94
11124;BME280;5616;42.692;23.312;2023-04-20T03:09:14;94734.22;;;11.17;75.05
11124;BME280;5616;42.692;23.312;2023-04-20T03:11:53;94733.81;;;11.20;75.26
11124;BME280;5616;42.692;23.312;2023-04-20T03:14:46;94725.63;;;11.03;75.66
11124;BME280;5616;42.692;23.312;2023-04-20T03:17:14;94733.16;;;10.98;75.20
11124;BME280;5616;42.692;23.312;2023-04-20T03:19:42;94729.59;;;11.05;74.97
11124;BME280;5616;42.692;23.312;2023-04-20T03:22:10;94727.22;;;11.11;74.74
11124;BME280;5616;42.692;23.312;2023-04-20T03:24:37;94725.25;;;11.13;73.54
11124;BME280;5616;42.692;23.312;2023-04-20T03:27:14;94730.84;;;11.16;74.95
11124;BME280;5616;42.692;23.312;2023-04-20T03:29:53;94728.44;;;11.15;74.78
11124;BME280;5616;42.692;23.312;2023-04-20T03:32:21;94743.34;;;11.13;74.52
11124;BME280;5616;42.692;23.312;2023-04-20T03:34:50;94736.19;;;11.15;74.94
11124;BME280;5616;42.692;23.312;2023-04-20T03:37:17;94739.41;;;11.17;75.06
11124;BME280;5616;42.692;23.312;2023-04-20T03:39:46;94736.41;;;11.20;73.21
11124;BME280;5616;42.692;23.312;2023-04-20T03:42:12;94735.22;;;11.16;74.60
11124;BME280;5616;42.692;23.312;2023-04-20T03:44:40;94734.38;;;11.09;74.74
11124;BME280;5616;42.692;23.312;2023-04-20T03:47:07;94730.41;;;11.13;74.56
11124;BME280;5616;42.692;23.312;2023-04-20T03:49:35;94735.63;;;11.19;74.42
11124;BME280;5616;42.692;23.312;2023-04-20T03:52:04;94733.66;;;11.28;74.40
11124;BME280;5616;42.692;23.312;2023-04-20T03:54:32;94737.41;;;11.19;74.69
11124;BME280;5616;42.692;23.312;2023-04-20T03:56:59;94736.88;;;11.30;74.03
11124;BME280;5616;42.692;23.312;2023-04-20T03:59:26;94731.09;;;11.34;73.48
11124;BME280;5616;42.692;23.312;2023-04-20T04:01:53;94733.47;;;11.29;74.66
11124;BME280;5616;42.692;23.312;2023-04-20T04:04:21;94744.78;;;11.22;75.65
11124;BME280;5616;42.692;23.312;2023-04-20T04:06:48;94742.78;;;11.24;74.97
11124;BME280;5616;42.692;23.312;2023-04-20T04:09:16;94745.38;;;11.30;73.93
11124;BME280;5616;42.692;23.312;2023-04-20T04:11:44;94749.19;;;11.34;72.51
11124;BME280;5616;42.692;23.312;2023-04-20T04:14:11;94749.63;;;11.44;73.71
11124;BME280;5616;42.692;23.312;2023-04-20T04:16:38;94748.03;;;11.43;73.67
11124;BME280;5616;42.692;23.312;2023-04-20T04:19:04;94749.78;;;11.30;74.19
11124;BME280;5616;42.692;23.312;2023-04-20T04:21:31;94750.41;;;11.38;72.88
11124;BME280;5616;42.692;23.312;2023-04-20T04:24:02;94752.34;;;11.23;74.15
11124;BME280;5616;42.692;23.312;2023-04-20T04:26:49;94741.22;;;11.29;72.55
11124;BME280;5616;42.692;23.312;2023-04-20T04:29:17;94751.56;;;11.36;73.22
11124;BME280;5616;42.692;23.312;2023-04-20T04:31:44;94744.66;;;11.43;73.36
11124;BME280;5616;42.692;23.312;2023-04-20T04:34:15;94752.44;;;11.49;73.32
11124;BME280;5616;42.692;23.312;2023-04-20T04:36:46;94760.38;;;11.48;72.94
11124;BME280;5616;42.692;23.312;2023-04-20T04:39:16;94763.19;;;11.53;71.79
11124;BME280;5616;42.692;23.312;2023-04-20T04:41:53;94761.63;;;11.58;71.26
11124;BME280;5616;42.692;23.312;2023-04-20T04:44:35;94762.19;;;11.54;71.71
11124;BME280;5616;42.692;23.312;2023-04-20T04:47:06;94762.75;;;11.43;72.49
11124;BME280;5616;42.692;23.312;2023-04-20T04:49:34;94766.75;;;11.45;72.83
11124;BME280;5616;42.692;23.312;2023-04-20T04:52:01;94767.53;;;11.46;73.19
11124;BME280;5616;42.692;23.312;2023-04-20T04:54:28;94776.91;;;11.53;73.55
11124;BME280;5616;42.692;23.312;2023-04-20T04:56:56;94773.91;;;11.50;73.76
11124;BME280;5616;42.692;23.312;2023-04-20T04:59:23;94774.34;;;11.60;71.82
11124;BME280;5616;42.692;23.312;2023-04-20T05:01:50;94771.38;;;11.63;71.13
11124;BME280;5616;42.692;23.312;2023-04-20T05:04:17;94779.16;;;11.70;70.68
11124;BME280;5616;42.692;23.312;2023-04-20T05:06:43;94779.59;;;11.73;70.46
11124;BME280;5616;42.692;23.312;2023-04-20T05:09:10;94780.97;;;11.76;70.35
11124;BME280;5616;42.692;23.312;2023-04-20T05:11:37;94781.78;;;11.76;69.97
11124;BME280;5616;42.692;23.312;2023-04-20T05:14:05;94784.38;;;11.76;70.83
11124;BME280;5616;42.692;23.312;2023-04-20T05:16:32;94772.34;;;11.55;71.44
11124;BME280;5616;42.692;23.312;2023-04-20T05:18:59;94778.13;;;11.57;72.12
11124;BME280;5616;42.692;23.312;2023-04-20T05:21:25;94780.09;;;11.62;71.59
11124;BME280;5616;42.692;23.312;2023-04-20T05:23:52;94778.41;;;11.69;71.65
11124;BME280;5616;42.692;23.312;2023-04-20T05:26:19;94774.78;;;11.70;71.08
11124;BME280;5616;42.692;23.312;2023-04-20T05:28:46;94783.59;;;11.82;69.77
11124;BME280;5616;42.692;23.312;2023-04-20T05:31:14;94783.41;;;11.77;70.00
11124;BME280;5616;42.692;23.312;2023-04-20T05:33:41;94777.59;;;11.75;71.09
11124;BME280;5616;42.692;23.312;2023-04-20T05:36:08;94782.97;;;11.80;71.29
11124;BME280;5616;42.692;23.312;2023-04-20T05:38:35;94787.78;;;11.90;69.91
11124;BME280;5616;42.692;23.312;2023-04-20T05:41:02;94792.16;;;11.89;69.97
11124;BME280;5616;42.692;23.312;2023-04-20T05:43:29;94795.34;;;11.91;69.94
11124;BME280;5616;42.692;23.312;2023-04-20T05:45:56;94795.75;;;11.88;69.55
11124;BME280;5616;42.692;23.312;2023-04-20T05:48:24;94789.19;;;11.92;70.35
11124;BME280;5616;42.692;23.312;2023-04-20T05:50:51;94789.41;;;11.97;70.39
11124;BME280;5616;42.692;23.312;2023-04-20T05:53:18;94786.44;;;12.00;69.99
11124;BME280;5616;42.692;23.312;2023-04-20T05:55:46;94787.22;;;12.01;69.89
11124;BME280;5616;42.692;23.312;2023-04-20T05:58:13;94789.41;;;12.04;69.26
11124;BME280;5616;42.692;23.312;2023-04-20T06:00:40;94789.59;;;12.02;69.31
11124;BME280;5616;42.692;23.312;2023-04-20T06:03:06;94789.00;;;12.07;69.45
11124;BME280;5616;42.692;23.312;2023-04-20T06:05:34;94778.66;;;12.07;70.66
11124;BME280;5616;42.692;23.312;2023-04-20T06:08:01;94785.03;;;12.17;72.63
11124;BME280;5616;42.692;23.312;2023-04-20T06:10:28;94776.50;;;12.50;80.90
11124;BME280;5616;42.692;23.312;2023-04-20T06:12:56;94777.69;;;12.47;72.52
11124;BME280;5616;42.692;23.312;2023-04-20T06:15:23;94785.69;;;12.46;70.13
11124;BME280;5616;42.692;23.312;2023-04-20T06:17:50;94786.88;;;12.37;70.28
11124;BME280;5616;42.692;23.312;2023-04-20T06:20:17;94784.47;;;12.35;70.12
11124;BME280;5616;42.692;23.312;2023-04-20T06:22:46;94790.44;;;12.36;70.04
11124;BME280;5616;42.692;23.312;2023-04-20T06:25:13;94797.41;;;12.28;70.13
11124;BME280;5616;42.692;23.312;2023-04-20T06:27:40;94789.84;;;12.34;72.28
11124;BME280;5616;42.692;23.312;2023-04-20T06:30:08;94796.03;;;12.33;71.64
11124;BME280;5616;42.692;23.312;2023-04-20T06:32:35;94792.03;;;12.30;70.10
11124;BME280;5616;42.692;23.312;2023-04-20T06:35:02;94807.16;;;12.26;70.26
11124;BME280;5616;42.692;23.312;2023-04-20T06:37:29;94796.22;;;12.24;70.05
11124;BME280;5616;42.692;23.312;2023-04-20T06:39:57;94800.59;;;12.31;69.88
11124;BME280;5616;42.692;23.312;2023-04-20T06:42:24;94796.81;;;12.40;70.91
11124;BME280;5616;42.692;23.312;2023-04-20T06:44:51;94802.41;;;12.37;69.85
11124;BME280;5616;42.692;23.312;2023-04-20T06:47:18;94804.00;;;12.38;71.46
11124;BME280;5616;42.692;23.312;2023-04-20T06:49:45;94812.16;;;12.35;70.08
11124;BME280;5616;42.692;23.312;2023-04-20T06:52:11;94808.16;;;12.19;72.22
11124;BME280;5616;42.692;23.312;2023-04-20T06:54:38;94814.72;;;12.08;73.90
11124;BME280;5616;42.692;23.312;2023-04-20T06:57:06;94812.31;;;12.07;73.52
11124;BME280;5616;42.692;23.312;2023-04-20T06:59:33;94813.09;;;12.01;76.07
11124;BME280;5616;42.692;23.312;2023-04-20T07:02:00;94813.31;;;12.12;74.93
11124;BME280;5616;42.692;23.312;2023-04-20T07:04:26;94812.75;;;12.23;75.50
11124;BME280;5616;42.692;23.312;2023-04-20T07:06:53;94816.94;;;12.31;74.89
11124;BME280;5616;42.692;23.312;2023-04-20T07:09:20;94828.06;;;12.38;73.73
11124;BME280;5616;42.692;23.312;2023-04-20T07:11:47;94823.91;;;12.44;72.92
11124;BME280;5616;42.692;23.312;2023-04-20T07:14:15;94820.94;;;12.53;73.68
11124;BME280;5616;42.692;23.312;2023-04-20T07:16:42;94821.53;;;12.62;72.54
11124;BME280;5616;42.692;23.312;2023-04-20T07:19:09;94817.53;;;12.72;72.73
11124;BME280;5616;42.692;23.312;2023-04-20T07:21:36;94814.94;;;12.85;73.24
11124;BME280;5616;42.692;23.312;2023-04-20T07:24:03;94810.34;;;12.94;73.25
11124;BME280;5616;42.692;23.312;2023-04-20T07:26:30;94818.94;;;13.14;71.25
11124;BME280;5616;42.692;23.312;2023-04-20T07:28:57;94822.28;;;13.28;70.11
11124;BME280;5616;42.692;23.312;2023-04-20T07:31:25;94816.69;;;13.37;70.23
11124;BME280;5616;42.692;23.312;2023-04-20T07:33:52;94813.44;;;13.55;69.16
11124;BME280;5616;42.692;23.312;2023-04-20T07:36:18;94825.53;;;13.74;68.75
11124;BME280;5616;42.692;23.312;2023-04-20T07:38:47;94816.50;;;13.83;68.07
11124;BME280;5616;42.692;23.312;2023-04-20T07:41:13;94820.41;;;13.99;68.53
11124;BME280;5616;42.692;23.312;2023-04-20T07:43:40;94809.09;;;14.25;67.87
11124;BME280;5616;42.692;23.312;2023-04-20T07:46:09;94811.16;;;14.47;66.62
11124;BME280;5616;42.692;23.312;2023-04-20T07:48:37;94813.41;;;14.68;64.99
11124;BME280;5616;42.692;23.312;2023-04-20T07:51:04;94816.34;;;15.21;60.53
11124;BME280;5616;42.692;23.312;2023-04-20T07:53:31;94817.69;;;15.97;58.67
11124;BME280;5616;42.692;23.312;2023-04-20T07:55:59;94811.47;;;16.27;58.32
11124;BME280;5616;42.692;23.312;2023-04-20T07:58:26;94811.94;;;15.76;58.32
11124;BME280;5616;42.692;23.312;2023-04-20T08:00:53;94813.19;;;16.33;56.15
11124;BME280;5616;42.692;23.312;2023-04-20T08:03:20;94807.00;;;16.46;55.91
11124;BME280;5616;42.692;23.312;2023-04-20T08:05:48;94805.06;;;16.83;56.06
11124;BME280;5616;42.692;23.312;2023-04-20T08:08:14;94805.72;;;16.37;55.09
11124;BME280;5616;42.692;23.312;2023-04-20T08:10:42;94817.81;;;16.20;55.13
11124;BME280;5616;42.692;23.312;2023-04-20T08:13:09;94816.03;;;16.02;55.79
11124;BME280;5616;42.692;23.312;2023-04-20T08:15:35;94817.00;;;15.71;57.62
11124;BME280;5616;42.692;23.312;2023-04-20T08:18:02;94809.66;;;15.50;58.59
11124;BME280;5616;42.692;23.312;2023-04-20T08:20:29;94812.47;;;15.06;61.25
11124;BME280;5616;42.692;23.312;2023-04-20T08:22:57;94810.50;;;15.01;61.11
11124;BME280;5616;42.692;23.312;2023-04-20T08:25:24;94814.63;;;14.91;60.10
11124;BME280;5616;42.692;23.312;2023-04-20T08:27:50;94816.16;;;14.74;60.17
11124;BME280;5616;42.692;23.312;2023-04-20T08:30:17;94809.47;;;14.59;60.66
11124;BME280;5616;42.692;23.312;2023-04-20T08:32:44;94810.84;;;14.62;61.64
11124;BME280;5616;42.692;23.312;2023-04-20T08:35:11;94810.81;;;14.68;61.59
11124;BME280;5616;42.692;23.312;2023-04-20T08:37:38;94814.34;;;14.74;60.55
11124;BME280;5616;42.692;23.312;2023-04-20T08:40:08;94809.44;;;14.91;61.48
11124;BME280;5616;42.692;23.312;2023-04-20T08:42:35;94805.94;;;14.97;59.66
11124;BME280;5616;42.692;23.312;2023-04-20T08:45:02;94804.94;;;14.98;60.40
11124;BME280;5616;42.692;23.312;2023-04-20T08:47:30;94814.72;;;14.78;61.48
11124;BME280;5616;42.692;23.312;2023-04-20T08:49:59;94817.00;;;14.67;61.95
11124;BME280;5616;42.692;23.312;2023-04-20T08:52:26;94822.50;;;14.53;60.30
11124;BME280;5616;42.692;23.312;2023-04-20T08:54:52;94822.50;;;14.53;61.15
11124;BME280;5616;42.692;23.312;2023-04-20T08:57:21;94824.09;;;14.54;60.22
11124;BME280;5616;42.692;23.312;2023-04-20T08:59:47;94814.81;;;14.40;60.97
11124;BME280;5616;42.692;23.312;2023-04-20T09:02:14;94816.19;;;14.42;62.50
11124;BME280;5616;42.692;23.312;2023-04-20T09:04:41;94814.25;;;14.38;62.16
11124;BME280;5616;42.692;23.312;2023-04-20T09:07:16;94819.78;;;14.41;62.31
11124;BME280;5616;42.692;23.312;2023-04-20T09:09:52;94819.13;;;14.52;61.09
11124;BME280;5616;42.692;23.312;2023-04-20T09:12:21;94815.59;;;14.72;61.48
11124;BME280;5616;42.692;23.312;2023-04-20T09:14:49;94815.63;;;14.65;62.94
11124;BME280;5616;42.692;23.312;2023-04-20T09:17:17;94816.00;;;14.68;62.79
11124;BME280;5616;42.692;23.312;2023-04-20T09:19:50;94820.25;;;14.88;59.90
11124;BME280;5616;42.692;23.312;2023-04-20T09:22:28;94817.09;;;15.04;58.93
11124;BME280;5616;42.692;23.312;2023-04-20T09:24:55;94807.94;;;15.19;59.59
11124;BME280;5616;42.692;23.312;2023-04-20T09:27:23;94803.47;;;15.45;57.75
11124;BME280;5616;42.692;23.312;2023-04-20T09:29:56;94805.28;;;15.62;56.28
11124;BME280;5616;42.692;23.312;2023-04-20T09:32:23;94798.28;;;15.63;57.57
11124;BME280;5616;42.692;23.312;2023-04-20T09:34:50;94802.91;;;15.79;56.66
11124;BME280;5616;42.692;23.312;2023-04-20T09:37:17;94807.81;;;16.17;55.90
11124;BME280;5616;42.692;23.312;2023-04-20T09:39:45;94798.22;;;16.59;55.07
11124;BME280;5616;42.692;23.312;2023-04-20T09:42:13;94797.56;;;16.86;54.83
11124;BME280;5616;42.692;23.312;2023-04-20T09:44:42;94800.28;;;17.26;52.21
11124;BME280;5616;42.692;23.312;2023-04-20T09:47:15;94795.63;;;17.40;51.63
11124;BME280;5616;42.692;23.312;2023-04-20T09:49:43;94799.69;;;17.36;51.75
11124;BME280;5616;42.692;23.312;2023-04-20T09:52:10;94790.06;;;17.36;51.60
11124;BME280;5616;42.692;23.312;2023-04-20T09:54:39;94792.44;;;17.38;51.38
11124;BME280;5616;42.692;23.312;2023-04-20T09:57:05;94783.16;;;17.19;52.02
11124;BME280;5616;42.692;23.312;2023-04-20T09:59:32;94783.25;;;17.24;52.53
11124;BME280;5616;42.692;23.312;2023-04-20T10:02:00;94783.25;;;17.24;52.73
11124;BME280;5616;42.692;23.312;2023-04-20T10:04:27;94769.22;;;16.90;54.17
11124;BME280;5616;42.692;23.312;2023-04-20T10:06:55;94779.53;;;16.96;53.45
11124;BME280;5616;42.692;23.312;2023-04-20T10:09:27;94775.41;;;16.54;53.91
11124;BME280;5616;42.692;23.312;2023-04-20T10:12:05;94774.75;;;16.70;53.23
11124;BME280;5616;42.692;23.312;2023-04-20T10:14:32;94761.59;;;16.88;53.08
11124;BME280;5616;42.692;23.312;2023-04-20T10:17:02;94758.53;;;17.26;52.43
11124;BME280;5616;42.692;23.312;2023-04-20T10:19:39;94757.09;;;16.72;54.87
11124;BME280;5616;42.692;23.312;2023-04-20T10:22:07;94764.81;;;16.67;54.15
11124;BME280;5616;42.692;23.312;2023-04-20T10:24:35;94762.88;;;16.97;53.15
11124;BME280;5616;42.692;23.312;2023-04-20T10:27:04;94758.97;;;17.23;53.14
11124;BME280;5616;42.692;23.312;2023-04-20T10:29:41;94759.28;;;17.61;50.93
11124;BME280;5616;42.692;23.312;2023-04-20T10:32:20;94755.00;;;17.32;51.52
11124;BME280;5616;42.692;23.312;2023-04-20T10:34:47;94755.25;;;17.19;53.63
11124;BME280;5616;42.692;23.312;2023-04-20T10:37:14;94753.44;;;17.08;53.89
11124;BME280;5616;42.692;23.312;2023-04-20T10:39:43;94750.28;;;17.06;53.96
11124;BME280;5616;42.692;23.312;2023-04-20T10:42:10;94756.38;;;17.35;51.03
11124;BME280;5616;42.692;23.312;2023-04-20T10:44:46;94753.50;;;17.36;50.31
11124;BME280;5616;42.692;23.312;2023-04-20T10:47:14;94750.31;;;17.57;50.87
11124;BME280;5616;42.692;23.312;2023-04-20T10:49:41;94761.94;;;17.78;50.64
11124;BME280;5616;42.692;23.312;2023-04-20T10:52:08;94753.66;;;17.81;49.83
11124;BME280;5616;42.692;23.312;2023-04-20T10:54:36;94750.19;;;17.64;50.19
11124;BME280;5616;42.692;23.312;2023-04-20T10:57:04;94751.91;;;17.87;50.25
11124;BME280;5616;42.692;23.312;2023-04-20T10:59:32;94748.31;;;18.04;50.41
11124;BME280;5616;42.692;23.312;2023-04-20T11:01:59;94749.09;;;17.37;51.91
11124;BME280;5616;42.692;23.312;2023-04-20T11:04:31;94753.41;;;17.43;51.58
11124;BME280;5616;42.692;23.312;2023-04-20T11:07:03;94744.28;;;17.68;50.74
11124;BME280;5616;42.692;23.312;2023-04-20T11:09:31;94735.44;;;17.86;48.97
11124;BME280;5616;42.692;23.312;2023-04-20T11:11:59;94724.66;;;18.11;48.94
11124;BME280;5616;42.692;23.312;2023-04-20T11:14:27;94743.88;;;17.88;50.32
11124;BME280;5616;42.692;23.312;2023-04-20T11:16:54;94725.88;;;18.37;49.07
11124;BME280;5616;42.692;23.312;2023-04-20T11:19:22;94724.31;;;18.52;49.47
11124;BME280;5616;42.692;23.312;2023-04-20T11:21:50;94730.25;;;18.81;49.45
11124;BME280;5616;42.692;23.312;2023-04-20T11:24:18;94726.84;;;19.19;47.79
11124;BME280;5616;42.692;23.312;2023-04-20T11:26:45;94736.16;;;19.31;46.09
11124;BME280;5616;42.692;23.312;2023-04-20T11:29:26;94734.28;;;19.27;44.41
11124;BME280;5616;42.692;23.312;2023-04-20T11:31:53;94723.91;;;19.15;44.87
11124;BME280;5616;42.692;23.312;2023-04-20T11:34:20;94723.22;;;19.20;45.25
11124;BME280;5616;42.692;23.312;2023-04-20T11:36:47;94717.19;;;19.19;45.60
11124;BME280;5616;42.692;23.312;2023-04-20T11:39:22;94719.41;;;19.11;46.12
11124;BME280;5616;42.692;23.312;2023-04-20T11:41:49;94719.34;;;18.67;46.30
11124;BME280;5616;42.692;23.312;2023-04-20T11:44:17;94716.28;;;18.75;46.12
11124;BME280;5616;42.692;23.312;2023-04-20T11:46:45;94712.19;;;18.46;46.87
11124;BME280;5616;42.692;23.312;2023-04-20T11:49:14;94714.34;;;18.66;44.81
11124;BME280;5616;42.692;23.312;2023-04-20T11:51:41;94715.91;;;18.17;46.45
11124;BME280;5616;42.692;23.312;2023-04-20T11:54:09;94710.97;;;18.04;48.20
11124;BME280;5616;42.692;23.312;2023-04-20T11:56:37;94713.97;;;17.96;48.11
11124;BME280;5616;42.692;23.312;2023-04-20T11:59:06;94713.06;;;18.35;46.85
11124;BME280;5616;42.692;23.312;2023-04-20T12:01:33;94707.09;;;18.40;46.63
11124;BME280;5616;42.692;23.312;2023-04-20T12:04:00;94707.91;;;18.40;47.46
11124;BME280;5616;42.692;23.312;2023-04-20T12:06:27;94711.34;;;18.12;49.47
11124;BME280;5616;42.692;23.312;2023-04-20T12:08:54;94704.69;;;17.88;48.56
11124;BME280;5616;42.692;23.312;2023-04-20T12:11:21;94711.53;;;17.78;48.39
11124;BME280;5616;42.692;23.312;2023-04-20T12:13:50;94718.44;;;17.55;49.16
11124;BME280;5616;42.692;23.312;2023-04-20T12:16:18;94728.13;;;17.20;50.22
11124;BME280;5616;42.692;23.312;2023-04-20T12:18:44;94721.47;;;17.01;52.29
11124;BME280;5616;42.692;23.312;2023-04-20T12:21:11;94723.63;;;16.92;51.05
11124;BME280;5616;42.692;23.312;2023-04-20T12:23:38;94720.13;;;16.87;51.63
11124;BME280;5616;42.692;23.312;2023-04-20T12:26:05;94714.69;;;16.77;53.24
11124;BME280;5616;42.692;23.312;2023-04-20T12:28:32;94714.56;;;16.72;53.64
11124;BME280;5616;42.692;23.312;2023-04-20T12:31:00;94713.78;;;16.71;53.40
11124;BME280;5616;42.692;23.312;2023-04-20T12:33:28;94711.50;;;16.63;53.46
11124;BME280;5616;42.692;23.312;2023-04-20T12:35:54;94708.78;;;16.81;52.62
11124;BME280;5616;42.692;23.312;2023-04-20T12:38:21;94711.94;;;16.95;52.58
11124;BME280;5616;42.692;23.312;2023-04-20T12:40:48;94705.44;;;17.21;51.65
11124;BME280;5616;42.692;23.312;2023-04-20T12:43:15;94700.84;;;17.39;50.64
11124;BME280;5616;42.692;23.312;2023-04-20T12:45:41;94692.75;;;17.64;50.33
11124;BME280;5616;42.692;23.312;2023-04-20T12:48:10;94694.50;;;18.03;51.08
11124;BME280;5616;42.692;23.312;2023-04-20T12:50:36;94696.03;;;18.32;48.91
11124;BME280;5616;42.692;23.312;2023-04-20T12:53:03;94695.41;;;18.59;47.89
11124;BME280;5616;42.692;23.312;2023-04-20T12:55:31;94692.47;;;18.55;50.72
11124;BME280;5616;42.692;23.312;2023-04-20T12:57:57;94695.88;;;18.56;49.74
11124;BME280;5616;42.692;23.312;2023-04-20T13:00:24;94691.06;;;18.48;51.27
11124;BME280;5616;42.692;23.312;2023-04-20T13:02:51;94686.72;;;18.42;48.04
11124;BME280;5616;42.692;23.312;2023-04-20T13:05:19;94687.31;;;18.44;48.31